Flight Track Log - Related Links

Times and Time Zones

All times are in EDT time to prevent confusion due to time zone crossing. See the N724EA flight status page for this flight to view local times or setup timezone preferences in your user account.

Time Position Orientation Groundspeed Altitude Reporting Facility
EDT Latitude Longitude Course Direction KTS MPH feet Rate Location/Type
Sun 02:58:10 PM 30.0547 -90.0322 North 123 142 900  Level Houston Center
Sun 02:58:47 PM 30.0778 -90.0311 North 156 180 2,400 2,824 Climbing Houston Center
Sun 02:59:52 PM 30.1286 -90.0122 18° North 205 236 5,700 2,740 Climbing Houston Center
Sun 03:00:54 PM 30.1519 -89.9408 69° East 245 282 8,200 1,597 Climbing Houston Center
Sun 03:01:56 PM 30.0983 -89.8706 131° Southeast 306 352 9,000 387 Climbing Houston Center
Sun 03:02:58 PM 29.9983 -89.8528 171° South 303 349 9,000 968 Level Houston Center
Sun 03:04:00 PM 29.9111 -89.8386 172° South 312 359 11,000 2,160 Climbing Houston Center
Sun 03:05:03 PM 29.8194 -89.8039 162° South 353 406 13,500 2,352 Climbing Houston Center
Sun 03:06:05 PM 29.7594 -89.7103 126° Southeast 370 426 15,900 1,548 Climbing Houston Center
Sun 03:08:09 PM 29.6769 -89.4358 109° East 421 484 18,300 1,129 Climbing Houston Center
Sun 03:09:11 PM 29.6369 -89.3042 109° East 433 498 19,400 1,016 Climbing Houston Center
Sun 03:10:13 PM 29.5972 -89.1669 108° East 450 518 20,400 968 Climbing Houston Center
Sun 03:11:15 PM 29.5567 -89.0333 109° East 448 516 21,400 968 Climbing Houston Center
Sun 03:12:17 PM 29.5169 -88.8994 109° East 447 514 22,400 1,113 Climbing Houston Center
Sun 03:13:19 PM 29.4669 -88.7367 109° East 450 518 23,700 1,113 Climbing Houston Center
Sun 03:14:21 PM 29.4272 -88.6022 109° East 448 516 24,700 968 Climbing Houston Center
Sun 03:15:23 PM 29.3850 -88.4689 110° East 446 513 25,700 960 Climbing Houston Center
Sun 03:16:26 PM 29.3450 -88.3339 109° East 448 516 26,700 960 Climbing Houston Center
Sun 03:17:28 PM 29.3036 -88.2011 110° East 446 513 27,700 1,065 Climbing Houston Center
Sun 03:18:30 PM 29.2569 -88.0531 110° East 444 511 28,900 1,065 Climbing Houston Center
Sun 03:19:32 PM 29.2161 -87.9217 110° East 442 509 29,900 968 Climbing Houston Center
Sun 03:20:34 PM 29.1750 -87.7900 110° East 441 507 30,900 968 Climbing Houston Center
Sun 03:21:36 PM 29.1347 -87.6597 109° East 437 503 31,900 1,065 Climbing Houston Center
Sun 03:22:38 PM 29.0867 -87.5056 110° East 431 496 33,100 1,065 Climbing Houston Center
Sun 03:23:40 PM 29.0461 -87.3786 110° East 428 493 34,100 990 Climbing Houston Center
Sun 03:24:15 PM 29.0236 -87.2994 108° East 419 482 34,700 568 Climbing Jacksonville Center
Sun 03:25:15 PM 28.9800 -87.1742 112° Southeast 414 476 35,000 150 Climbing Jacksonville Center
Sun 03:26:15 PM 28.9406 -87.0419 109° East 420 483 35,000  Level Jacksonville Center
Sun 03:27:15 PM 28.8969 -86.9050 110° East 439 505 35,000  Level Jacksonville Center
Sun 03:28:15 PM 28.8489 -86.7656 111° Southeast 455 524 35,000  Level Jacksonville Center
Sun 03:30:15 PM 28.7550 -86.4778 110° East 476 548 35,000  Level Jacksonville Center
Sun 03:31:15 PM 28.7089 -86.3342 110° East 476 548 35,000  Level Jacksonville Center
Sun 03:32:15 PM 28.6625 -86.1953 111° Southeast 476 548 35,000  Level Jacksonville Center
Sun 03:33:15 PM 28.6139 -86.0519 111° Southeast 476 548 35,000  Level Jacksonville Center
Sun 03:34:15 PM 28.5694 -85.9111 110° East 476 548 35,000  Level Jacksonville Center
Sun 03:35:15 PM 28.5206 -85.7678 111° Southeast 476 548 35,000  Level Jacksonville Center
Sun 03:36:15 PM 28.4736 -85.6272 111° Southeast 476 548 35,000  Level Jacksonville Center
Sun 03:37:15 PM 28.4264 -85.4842 111° Southeast 476 548 35,000  Level Jacksonville Center
Sun 03:38:15 PM 28.3789 -85.3486 112° Southeast 471 542 35,000  Level Jacksonville Center
Sun 03:39:15 PM 28.3336 -85.2083 110° East 466 536 35,000  Level Jacksonville Center
Sun 03:40:58 PM 28.2542 -84.9775 111° Southeast 480 552 35,000  Level Miami Center
Sun 03:41:58 PM 28.2100 -84.8403 110° East 480 552 35,000  Level Miami Center
Sun 03:42:58 PM 28.1614 -84.7028 112° Southeast 475 547 35,000  Level Miami Center
Sun 03:43:58 PM 28.1128 -84.5606 111° Southeast 475 547 35,000  Level Miami Center
Sun 03:44:58 PM 28.0658 -84.4236 111° Southeast 475 547 35,000  Level Miami Center
Sun 03:45:58 PM 28.0042 -84.2878 117° Southeast 475 547 35,000  Level Miami Center
Sun 03:46:58 PM 27.9172 -84.1953 137° Southeast 461 531 35,000  Level Miami Center
Sun 03:47:58 PM 27.8033 -84.1364 155° Southeast 432 497 35,000  Level Miami Center
Sun 03:48:58 PM 27.7000 -84.0783 154° Southeast 426 490 35,000  Level Miami Center
Sun 03:49:58 PM 27.5900 -84.0269 158° South 431 496 35,000 -633 Level Miami Center
Sun 03:51:00 PM 27.5541 -83.9042 108° East  Level Estimated
Sun 03:51:58 PM 27.3636 -83.9217 108° East 436 502 33,100  Level Miami Center
Sun 03:52:58 PM 27.2703 -83.8272 138° Southeast 443 510 32,100 -1,000 Descending Miami Center
Sun 03:53:58 PM 27.2206 -83.6867 112° Southeast 452 520 31,100 -550 Descending Miami Center
Sun 03:54:58 PM 27.1775 -83.5372 108° East 468 539 31,000 -50 Descending Miami Center
Sun 03:55:58 PM 27.1406 -83.3906 106° East 481 554 31,000  Level Miami Center
Sun 03:56:58 PM 27.1011 -83.2414 107° East 491 565 31,000 -50 Level Miami Center
Sun 03:57:58 PM 27.0581 -83.0806 107° East 491 565 30,900 -550 Descending Miami Center
Sun 03:58:58 PM 27.0206 -82.9319 106° East 491 565 29,900 -1,150 Descending Miami Center
Sun 03:59:58 PM 26.9808 -82.7853 107° East 491 565 28,600 -1,650 Descending Miami Center
Sun 04:00:58 PM 26.9428 -82.6436 107° East 481 554 26,600 -2,000 Descending Miami Center
Sun 04:01:58 PM 26.9044 -82.5022 107° East 481 554 24,600 -1,300 Descending Miami Center
Sun 04:02:58 PM 26.8658 -82.3700 108° East 469 540 24,000 -350 Descending Miami Center
Sun 04:03:58 PM 26.8289 -82.2381 107° East 457 526 23,900 -800 Descending Miami Center
Sun 04:04:58 PM 26.7919 -82.1061 107° East 449 517 22,400 -1,500 Descending Miami Center
Sun 04:05:58 PM 26.7569 -81.9767 107° East 449 517 20,900 -1,500 Descending Miami Center
Sun 04:06:58 PM 26.7197 -81.8472 108° East 444 511 19,400 -950 Descending Miami Center
Sun 04:07:58 PM 26.6864 -81.7225 107° East 434 499 19,000 -200 Descending Miami Center
Sun 04:08:58 PM 26.6944 -81.6044 86° East 419 482 19,000  Level Miami Center
Sun 04:09:58 PM 26.7256 -81.4847 74° East 404 465 19,000 -950 Level Miami Center
Sun 04:10:58 PM 26.7592 -81.3442 75° East 414 476 17,100 -1,900 Descending Miami Center
Sun 04:11:58 PM 26.7858 -81.2242 76° East 408 470 15,200 -1,900 Descending Miami Center
Sun 04:12:58 PM 26.8122 -81.1089 76° East 388 447 13,300 -1,750 Descending Miami Center
Sun 04:13:58 PM 26.8108 -81.0064 91° East 371 427 11,700 -1,550 Descending Miami Center
Sun 04:14:58 PM 26.8075 -80.9064 92° East 339 390 10,200 -1,400 Descending Miami Center
Sun 04:15:58 PM 26.8000 -80.8014 95° East 311 358 8,900 -650 Descending Miami Center
Sun 04:16:58 PM 26.7475 -80.7297 129° Southeast 288 331 8,900 -150 Level Miami Center
Sun 04:17:58 PM 26.6803 -80.6717 142° Southeast 288 331 8,600 -900 Descending Miami Center
Sun 04:18:58 PM 26.6256 -80.6028 132° Southeast 297 342 7,100 -1,250 Descending Miami Center
Sun 04:19:58 PM 26.5836 -80.5222 120° Southeast 297 342 6,100 -1,050 Descending Miami Center
Sun 04:20:58 PM 26.5439 -80.4444 120° Southeast 292 336 5,000 -733 Descending Miami Center
Sun 04:22:58 PM 26.5039 -80.2856 106° East 263 303 3,900 -567 Descending Miami Center
Sun 04:23:58 PM 26.4950 -80.2133 98° East 252 290 3,300 -600 Descending Miami Center
Sun 04:25:00 PM 26.4326 -80.1246 156° South  Level FlightAware Approximate
Sun 04:32:00 PM 26.3785 -80.1077 180° South  Level Estimated
Sun 04:33:00 PM 26.3785 -80.1077 180° South  Level Estimated
Sun 04:34:00 PM 26.3785 -80.1077 180° South  Level Estimated
Sun 04:35:00 PM 26.3785 -80.1077 180° South  Level Estimated
Sun 04:36:00 PM 26.3785 -80.1077 180° South  Level Estimated

Login

Don't have an account? Register now (free) for customized features, flight alerts, and more!